Time;durP1;ratioP1;P1;durP2;ratioP2;P2;SDS_P1;SDS_P2;PMS_P1;PMS_P2;Temp;Humidity;BMP_temperature;BMP_pressure;BME280_temperature;BME280_humidity;BME280_pressure;Samples;Min_cycle;Max_cycle;Signal;HPM_P1;HPM_P2
2022/01/10 00:01:08;;;;;;;52.15;33.60;;;;;;;0.76;88.68;99533.12;1693598;83;21005;-62
2022/01/10 00:03:34;;;;;;;55.20;34.70;;;;;;;0.77;88.69;99538.69;1676929;83;21632;-65
2022/01/10 00:06:01;;;;;;;63.70;37.43;;;;;;;0.71;88.45;99536.66;1681363;83;21102;-63
2022/01/10 00:08:27;;;;;;;56.95;36.58;;;;;;;0.68;88.69;99539.55;1688699;83;21068;-64
2022/01/10 00:10:55;;;;;;;63.03;38.43;;;;;;;0.71;88.94;99545.84;1699156;83;21065;-64
2022/01/10 00:13:21;;;;;;;59.33;38.05;;;;;;;0.75;89.21;99552.44;1687403;83;21152;-61
2022/01/10 00:15:49;;;;;;;55.67;36.30;;;;;;;0.83;89.33;99556.50;1688598;83;21006;-64
2022/01/10 00:18:15;;;;;;;58.33;36.95;;;;;;;0.86;89.29;99545.70;1691857;83;21062;-62
2022/01/10 00:20:42;;;;;;;60.25;40.48;;;;;;;0.86;89.07;99548.81;1693699;83;21102;-62
2022/01/10 00:23:09;;;;;;;67.77;42.57;;;;;;;0.87;89.17;99554.41;1699796;82;20976;-65
2022/01/10 00:25:35;;;;;;;63.87;42.70;;;;;;;0.90;89.29;99557.55;1721606;82;21091;-63
2022/01/10 00:28:02;;;;;;;66.30;42.88;;;;;;;0.95;89.42;99560.57;1731123;82;21098;-63
2022/01/10 00:30:28;;;;;;;67.70;42.93;;;;;;;0.99;89.49;99550.61;1719004;82;21139;-60
2022/01/10 00:32:54;;;;;;;65.45;37.67;;;;;;;1.03;89.49;99562.96;1721347;82;21007;-62
2022/01/10 00:35:21;;;;;;;57.30;36.45;;;;;;;1.05;89.42;99557.89;1682945;83;21042;-63
2022/01/10 00:37:49;;;;;;;49.23;32.03;;;;;;;1.05;89.29;99563.14;1672262;83;21071;-62
2022/01/10 00:40:18;;;;;;;59.57;33.73;;;;;;;1.03;89.05;99574.77;1677174;83;21092;-65
2022/01/10 00:42:53;;;;;;;49.87;33.57;;;;;;;0.96;89.05;99559.62;1680265;83;21036;-61
2022/01/10 00:45:17;;;;;;;49.50;35.20;;;;;;;0.97;89.26;99559.13;1673668;83;20977;-60
2022/01/10 00:47:41;;;;;;;56.13;35.80;;;;;;;0.55;89.19;99504.01;1697745;82;21034;-62
2022/01/10 00:50:08;;;;;;;56.10;35.00;;;;;;;0.99;89.38;99574.23;1699193;82;21541;-63
2022/01/10 00:52:34;;;;;;;54.73;34.03;;;;;;;1.01;89.45;99568.84;1703058;82;21029;-62
2022/01/10 00:55:00;;;;;;;60.03;37.58;;;;;;;1.02;89.41;99571.33;1689674;82;21010;-62
2022/01/10 00:57:27;;;;;;;59.98;35.95;;;;;;;1.00;89.30;99571.11;1703942;82;21112;-65
2022/01/10 00:59:53;;;;;;;62.30;38.73;;;;;;;0.97;89.36;99582.25;1719299;82;21066;-60
2022/01/10 01:02:21;;;;;;;60.85;38.70;;;;;;;0.97;89.44;99583.55;1730128;81;21580;-61
2022/01/10 01:04:47;;;;;;;55.03;36.87;;;;;;;0.95;89.32;99576.31;1728683;81;20998;-62
2022/01/10 01:07:15;;;;;;;57.67;36.20;;;;;;;0.91;89.28;99578.89;1712737;81;21020;-62
2022/01/10 01:09:46;;;;;;;54.13;35.92;;;;;;;0.89;89.40;99578.22;1713769;81;21615;-62
2022/01/10 01:12:32;;;;;;;48.47;32.87;;;;;;;0.88;89.37;99583.11;1707505;81;21124;-61
2022/01/10 01:14:53;;;;;;;51.97;35.17;;;;;;;0.89;89.42;99590.02;1721332;81;21044;-61
2022/01/10 01:25:13;;;;;;;45.40;29.20;;;;;;;0.76;89.43;99592.14;1716146;81;21574;-63
2022/01/10 01:27:42;;;;;;;41.10;28.63;;;;;;;0.71;89.32;99590.43;1725673;81;21007;-61
2022/01/10 01:30:10;;;;;;;41.83;30.13;;;;;;;0.65;89.26;99594.94;1722452;81;21018;-62
2022/01/10 01:32:37;;;;;;;45.97;29.47;;;;;;;0.64;89.36;99597.21;1716878;81;21098;-63
2022/01/10 01:35:07;;;;;;;48.83;29.33;;;;;;;0.62;89.53;99592.09;1717616;81;21010;-68
2022/01/10 01:37:37;;;;;;;42.80;29.10;;;;;;;0.53;89.61;99580.69;1719271;82;21038;-65
2022/01/10 01:40:08;;;;;;;42.13;30.53;;;;;;;0.37;89.60;99556.36;1711303;83;21007;-64
2022/01/10 01:42:39;;;;;;;41.47;30.77;;;;;;;0.62;89.72;99601.28;1714834;82;20982;-64
2022/01/10 01:45:08;;;;;;;42.83;31.30;;;;;;;0.61;89.50;99597.52;1706615;82;22126;-65
2022/01/10 01:47:35;;;;;;;39.73;28.33;;;;;;;0.56;89.44;99595.30;1698412;82;21074;-62
2022/01/10 01:50:06;;;;;;;41.50;29.13;;;;;;;0.55;89.53;99604.16;1712239;82;21180;-62
2022/01/10 01:52:34;;;;;;;39.47;27.03;;;;;;;0.52;89.46;99600.49;1706529;82;21147;-61
2022/01/10 01:55:00;;;;;;;42.48;30.68;;;;;;;0.48;89.38;99607.81;1710053;82;21610;-60
2022/01/10 01:57:27;;;;;;;47.03;33.80;;;;;;;0.43;89.28;99609.20;1710376;82;21037;-60
2022/01/10 01:59:54;;;;;;;46.73;33.70;;;;;;;0.42;89.50;99611.50;1713107;82;21080;-64
2022/01/10 02:02:21;;;;;;;43.48;30.20;;;;;;;0.38;89.45;99614.39;1719779;82;21006;-61
2022/01/10 02:04:47;;;;;;;43.00;30.62;;;;;;;0.35;89.51;99613.34;1706415;82;21021;-63
2022/01/10 02:07:13;;;;;;;48.95;31.50;;;;;;;0.33;89.60;99612.66;1701087;82;21520;-60
2022/01/10 02:09:41;;;;;;;44.57;31.07;;;;;;;0.33;89.65;99613.16;1694369;82;21018;-62
2022/01/10 02:12:08;;;;;;;36.48;28.27;;;;;;;0.32;89.76;99613.65;1702744;82;21040;-62
2022/01/10 02:14:34;;;;;;;39.57;29.07;;;;;;;0.34;89.85;99617.41;1700062;82;21125;-61
2022/01/10 02:17:05;;;;;;;41.80;30.25;;;;;;;0.32;89.83;99617.58;1719818;82;21162;-64
2022/01/10 02:19:33;;;;;;;40.53;28.17;;;;;;;0.32;89.91;99621.52;1701998;82;21027;-61
2022/01/10 02:21:59;;;;;;;40.73;28.87;;;;;;;0.33;89.92;99628.39;1662785;84;21011;-61
2022/01/10 02:24:25;;;;;;;39.38;27.20;;;;;;;0.35;89.95;99632.19;1696228;82;21008;-61
2022/01/10 02:26:53;;;;;;;32.33;23.73;;;;;;;0.33;89.90;99627.08;1678689;84;21015;-61
2022/01/10 02:29:19;;;;;;;35.20;25.77;;;;;;;0.30;89.73;99635.24;1686135;82;21016;-61
2022/01/10 02:31:47;;;;;;;40.63;26.57;;;;;;;0.28;89.66;99632.40;1707426;82;21023;-61
2022/01/10 02:34:19;;;;;;;33.27;24.87;;;;;;;0.27;89.77;99636.82;1676564;84;21563;-62
2022/01/10 02:36:45;;;;;;;34.93;23.73;;;;;;;0.29;89.78;99638.81;1689114;83;21034;-61
2022/01/10 02:39:11;;;;;;;;;;;;;;;0.27;89.61;99647.30;1658497;85;21113;-64
2022/01/10 02:41:43;;;;;;;35.33;25.77;;;;;;;0.26;89.70;99644.82;1689501;83;20200;-59
2022/01/10 02:44:16;;;;;;;32.63;23.37;;;;;;;0.22;89.89;99648.69;1697957;83;21093;-63
2022/01/10 02:46:45;;;;;;;28.67;21.57;;;;;;;0.22;89.90;99651.31;1698505;83;21485;-61
2022/01/10 02:49:24;;;;;;;30.53;21.33;;;;;;;0.17;89.69;99649.09;1684645;83;21002;-62
2022/01/10 02:51:51;;;;;;;26.55;20.97;;;;;;;0.12;89.46;99654.76;1700979;83;21498;-60
2022/01/10 02:54:18;;;;;;;23.57;18.17;;;;;;;0.06;89.46;99657.08;1665611;83;21117;-64
2022/01/10 02:56:55;;;;;;;28.45;20.23;;;;;;;-0.01;89.40;99659.44;1682452;83;21038;-62
2022/01/10 02:59:25;;;;;;;26.55;19.73;;;;;;;-0.02;89.51;99666.94;1689819;83;21017;-64
2022/01/10 03:01:52;;;;;;;24.77;19.87;;;;;;;-0.07;89.51;99664.75;1697138;83;21001;-64
2022/01/10 03:04:19;;;;;;;26.23;18.27;;;;;;;-0.07;89.64;99671.78;1681851;83;21106;-62
2022/01/10 03:06:46;;;;;;;28.90;21.27;;;;;;;-0.08;89.65;99677.48;1689511;83;21065;-61
2022/01/10 03:09:13;;;;;;;;;;;;;;;-0.11;89.45;99679.58;1689474;83;21066;-60
2022/01/10 03:11:41;;;;;;;27.17;20.30;;;;;;;-0.14;89.54;99678.53;1688365;82;20459;-62
2022/01/10 03:14:08;;;;;;;23.80;18.33;;;;;;;-0.17;89.90;99684.03;1693394;83;21056;-62
2022/01/10 03:16:37;;;;;;;31.80;21.70;;;;;;;-0.15;90.02;99686.02;1682151;83;21493;-62
2022/01/10 03:19:02;;;;;;;28.15;19.85;;;;;;;-0.13;89.96;99688.02;1694632;83;21337;-63
2022/01/10 03:21:29;;;;;;;28.42;21.05;;;;;;;-0.11;90.02;99693.98;1710363;83;21025;-62
2022/01/10 03:23:55;;;;;;;29.18;18.85;;;;;;;-0.13;89.84;99688.87;1665421;83;21042;-61
2022/01/10 03:26:21;;;;;;;23.47;19.12;;;;;;;-0.14;89.85;99689.00;1674263;84;22264;-61
2022/01/10 03:28:48;;;;;;;25.87;19.57;;;;;;;-0.17;89.88;99689.27;1685636;84;21475;-62
2022/01/10 03:31:14;;;;;;;27.37;20.27;;;;;;;-0.19;89.89;99693.33;1692426;84;21564;-61
2022/01/10 03:33:41;;;;;;;;;;;;;;;-0.21;89.71;99695.25;1690422;82;21504;-61
2022/01/10 03:36:07;;;;;;;28.10;20.03;;;;;;;-0.22;89.83;99706.22;1696171;83;20178;-65
2022/01/10 03:38:35;;;;;;;26.80;18.30;;;;;;;-0.25;90.02;99710.41;1696557;83;21465;-68
2022/01/10 03:41:01;;;;;;;26.10;19.62;;;;;;;-0.24;90.01;99712.08;1696418;83;21144;-61
2022/01/10 03:43:28;;;;;;;23.62;17.00;;;;;;;-0.26;89.79;99706.14;1686350;83;21101;-60
2022/01/10 03:45:56;;;;;;;25.40;18.30;;;;;;;-0.29;89.46;99712.95;1675025;83;21610;-60
2022/01/10 03:48:22;;;;;;;26.83;19.70;;;;;;;-0.32;89.66;99714.55;1654214;84;21033;-61
2022/01/10 03:50:49;;;;;;;26.37;19.32;;;;;;;-0.31;89.84;99720.60;1670757;84;21055;-61
2022/01/10 03:53:15;;;;;;;25.45;19.17;;;;;;;-0.28;90.00;99716.42;1664624;84;21009;-60
2022/01/10 03:55:42;;;;;;;27.77;18.50;;;;;;;-0.27;90.05;99717.56;1679504;83;21042;-61
2022/01/10 03:58:08;;;;;;;25.53;18.00;;;;;;;-0.24;89.99;99723.04;1682343;83;21524;-62
2022/01/10 04:00:34;;;;;;;28.52;19.40;;;;;;;-0.24;89.97;99721.73;1681159;83;21022;-65
2022/01/10 04:03:05;;;;;;;26.05;17.57;;;;;;;-0.24;90.11;99723.86;1694711;83;21096;-62
2022/01/10 04:05:31;;;;;;;24.47;17.60;;;;;;;-0.23;89.98;99729.46;1692071;83;21139;-61
2022/01/10 04:07:58;;;;;;;27.80;19.52;;;;;;;-0.28;89.87;99732.95;1695763;83;21134;-62
2022/01/10 04:10:24;;;;;;;27.22;19.85;;;;;;;-0.31;89.85;99729.28;1686724;83;21529;-63
2022/01/10 04:12:50;;;;;;;30.77;21.25;;;;;;;-0.32;89.94;99734.19;1688066;82;20981;-61
2022/01/10 04:15:17;;;;;;;27.40;19.02;;;;;;;-0.31;90.13;99730.59;1706963;83;21066;-62
2022/01/10 04:17:43;;;;;;;27.65;21.23;;;;;;;-0.26;90.33;99735.45;1715965;83;21047;-62
2022/01/10 04:20:11;;;;;;;30.00;19.95;;;;;;;-0.24;90.37;99743.50;1705928;83;21062;-62
2022/01/10 04:22:37;;;;;;;25.80;19.40;;;;;;;-0.21;90.33;99746.33;1681083;84;21065;-62
2022/01/10 04:25:05;;;;;;;25.50;17.92;;;;;;;-0.22;90.22;99748.13;1699807;83;21071;-64
2022/01/10 04:27:34;;;;;;;26.23;18.30;;;;;;;-0.23;90.26;99750.41;1696174;83;21217;-62
2022/01/10 04:30:00;;;;;;;25.80;19.87;;;;;;;-0.26;90.12;99754.59;1688148;83;21658;-61
2022/01/10 04:32:30;;;;;;;29.18;20.00;;;;;;;-0.29;90.08;99760.09;1696923;83;21282;-60
2022/01/10 04:34:56;;;;;;;27.53;18.27;;;;;;;-0.29;90.16;99764.51;1723229;81;21046;-61
2022/01/10 04:37:23;;;;;;;29.10;19.67;;;;;;;-0.28;90.32;99767.00;1725694;81;21043;-71
2022/01/10 04:39:49;;;;;;;30.65;20.55;;;;;;;-0.25;90.39;99774.58;1699056;83;21014;-62
2022/01/10 04:42:15;;;;;;;28.92;19.73;;;;;;;-0.24;90.40;99772.31;1702149;83;21050;-63
2022/01/10 04:44:42;;;;;;;29.42;20.30;;;;;;;-0.21;90.41;99775.14;1681489;83;21121;-63
2022/01/10 04:47:09;;;;;;;;;;;;;;;-0.20;90.45;99780.25;1655924;85;21089;-64
2022/01/10 04:50:01;;;;;;;29.60;19.73;;;;;;;-0.15;90.49;99785.57;1607544;87;20140;-63
2022/01/10 04:52:04;;;;;;;26.17;18.93;;;;;;;-0.18;90.62;99785.85;1679960;83;21500;-62
2022/01/10 04:54:31;;;;;;;23.37;17.87;;;;;;;-0.19;90.42;99785.00;1684685;83;21615;-63
2022/01/10 04:56:57;;;;;;;29.30;19.45;;;;;;;-0.22;90.28;99784.80;1675857;83;21137;-64
2022/01/10 04:59:23;;;;;;;26.10;18.85;;;;;;;-0.24;90.23;99794.58;1684451;83;21028;-63
2022/01/10 05:01:49;;;;;;;27.20;19.50;;;;;;;-0.26;90.27;99792.58;1682279;83;21057;-63
2022/01/10 05:04:15;;;;;;;29.80;20.32;;;;;;;-0.24;90.37;99795.89;1692679;83;21084;-63
2022/01/10 05:06:42;;;;;;;29.83;18.80;;;;;;;-0.23;90.36;99801.95;1686777;83;21030;-62
2022/01/10 05:09:09;;;;;;;29.13;19.03;;;;;;;-0.21;90.46;99806.11;1685481;83;21542;-63
2022/01/10 05:11:45;;;;;;;25.03;17.80;;;;;;;-0.20;90.43;99807.75;1683668;83;21059;-65
2022/01/10 05:14:12;;;;;;;29.23;19.53;;;;;;;-0.20;90.38;99816.11;1689955;83;21542;-64
2022/01/10 05:16:40;;;;;;;24.10;17.47;;;;;;;-0.26;90.03;99817.45;1643933;85;21132;-62
2022/01/10 05:19:08;;;;;;;26.87;18.77;;;;;;;-0.31;90.11;99817.02;1637407;87;21035;-63
2022/01/10 05:21:34;;;;;;;23.63;17.27;;;;;;;-0.31;90.32;99818.81;1649007;85;21072;-63
2022/01/10 05:24:01;;;;;;;25.37;18.42;;;;;;;-0.29;90.51;99817.70;1662468;85;21411;-61
2022/01/10 05:26:27;;;;;;;26.68;19.45;;;;;;;-0.29;90.52;99819.02;1653175;85;21051;-63
2022/01/10 05:28:55;;;;;;;27.05;19.45;;;;;;;-0.29;90.59;99824.25;1649058;85;21067;-63
2022/01/10 05:31:22;;;;;;;25.20;18.67;;;;;;;-0.25;90.71;99830.89;1653495;85;21046;-64
2022/01/10 05:33:56;;;;;;;27.80;19.00;;;;;;;-0.22;90.76;99833.25;1650879;85;21539;-64
2022/01/10 05:36:23;;;;;;;27.23;19.40;;;;;;;-0.21;90.69;99833.62;1645051;85;21643;-62
2022/01/10 05:38:49;;;;;;;30.70;19.62;;;;;;;-0.20;90.61;99839.67;1648341;85;21554;-62
2022/01/10 05:41:15;;;;;;;23.62;17.57;;;;;;;-0.20;90.66;99841.81;1649567;85;21037;-61
2022/01/10 05:43:41;;;;;;;27.65;18.32;;;;;;;-0.22;90.43;99845.05;1642786;85;21080;-62
2022/01/10 05:46:09;;;;;;;25.02;17.62;;;;;;;-0.24;90.67;99850.89;1642013;86;21048;-65
2022/01/10 05:48:39;;;;;;;28.13;18.87;;;;;;;-0.22;91.03;99852.90;1641903;86;21329;-64
2022/01/10 05:51:06;;;;;;;26.07;18.63;;;;;;;-0.17;91.33;99850.36;1644039;86;21057;-69
2022/01/10 05:53:33;;;;;;;23.40;18.83;;;;;;;-0.14;91.44;99855.35;1638225;86;21156;-59
2022/01/10 05:56:00;;;;;;;22.77;16.60;;;;;;;-0.11;91.33;99863.78;1641038;86;20992;-60
2022/01/10 05:58:27;;;;;;;27.20;19.80;;;;;;;-0.10;91.28;99865.91;1695418;83;21097;-59
2022/01/10 06:00:54;;;;;;;27.10;18.40;;;;;;;-0.10;91.24;99865.42;1684240;83;21002;-60
2022/01/10 06:03:20;;;;;;;25.17;16.95;;;;;;;-0.15;91.23;99857.15;1704480;83;21033;-62
2022/01/10 06:05:48;;;;;;;23.40;17.80;;;;;;;-0.06;91.26;99876.47;1680645;83;21029;-60
2022/01/10 06:08:15;;;;;;;36.28;26.68;;;;;;;-0.07;91.24;99873.52;1686797;83;21604;-59
2022/01/10 06:10:43;;;;;;;24.77;18.43;;;;;;;-0.07;91.22;99881.38;1678602;83;21686;-61
2022/01/10 06:13:13;;;;;;;25.87;18.17;;;;;;;-0.08;91.27;99888.39;1697606;83;21534;-59
2022/01/10 06:15:41;;;;;;;25.17;19.23;;;;;;;-0.06;91.38;99889.58;1691570;83;21650;-59
2022/01/10 06:18:08;;;;;;;26.57;17.63;;;;;;;-0.07;91.34;99892.69;1684441;83;21565;-59
2022/01/10 06:20:34;;;;;;;;;;;;;;;-0.08;91.46;99899.36;1706222;83;21149;-60
2022/01/10 06:23:00;;;;;;;28.67;19.40;;;;;;;-0.11;91.25;99903.08;1675754;83;20181;-60
2022/01/10 06:25:27;;;;;;;27.15;19.70;;;;;;;-0.23;91.27;99911.96;1659850;85;21019;-60
2022/01/10 06:27:54;;;;;;;25.77;17.97;;;;;;;-0.26;91.52;99904.38;1616923;87;21056;-61
2022/01/10 06:30:20;;;;;;;29.27;18.70;;;;;;;-0.27;91.64;99906.15;1592432;89;21066;-60
2022/01/10 06:32:47;;;;;;;23.83;18.80;;;;;;;-0.23;91.74;99914.58;1661783;85;21110;-60
2022/01/10 06:35:15;;;;;;;26.20;17.70;;;;;;;-0.21;91.84;99917.44;1665562;83;21021;-61
2022/01/10 06:37:42;;;;;;;23.67;16.90;;;;;;;-0.15;91.82;99920.48;1673367;83;21081;-64
2022/01/10 06:40:10;;;;;;;26.60;19.60;;;;;;;-0.14;91.75;99924.77;1674523;83;21024;-63
2022/01/10 06:42:40;;;;;;;25.23;18.37;;;;;;;-0.14;91.77;99924.77;1686544;83;21038;-61
2022/01/10 06:45:08;;;;;;;27.77;18.13;;;;;;;-0.13;91.74;99923.34;1660154;83;21049;-60
2022/01/10 06:47:34;;;;;;;31.20;17.23;;;;;;;-0.12;91.75;99926.78;1651320;85;21044;-61
2022/01/10 06:50:00;;;;;;;26.27;18.57;;;;;;;-0.11;91.79;99930.59;1643044;85;21102;-59
2022/01/10 06:52:27;;;;;;;29.95;19.27;;;;;;;-0.09;91.84;99933.08;1646311;85;21012;-60
2022/01/10 06:54:53;;;;;;;28.02;19.50;;;;;;;-0.06;91.97;99938.05;1636844;85;21067;-60
2022/01/10 06:57:19;;;;;;;27.55;19.40;;;;;;;-0.03;91.92;99945.17;1699322;83;21006;-60
2022/01/10 06:59:46;;;;;;;26.93;22.05;;;;;;;-0.03;91.73;99948.28;1711843;83;21034;-60
2022/01/10 07:02:12;;;;;;;28.95;18.77;;;;;;;-0.03;91.69;99956.14;1650327;84;21096;-60
2022/01/10 07:04:39;;;;;;;26.90;18.10;;;;;;;0.01;91.56;99961.95;1643845;86;21002;-59
2022/01/10 07:07:08;;;;;;;24.60;18.47;;;;;;;-0.05;91.27;99952.82;1658278;86;21528;-59
2022/01/10 07:09:36;;;;;;;25.87;18.23;;;;;;;-0.08;91.27;99957.00;1636990;85;21451;-59
2022/01/10 07:12:08;;;;;;;29.53;21.90;;;;;;;-0.10;90.98;99958.43;1644016;84;21022;-60
2022/01/10 07:14:37;;;;;;;29.37;19.63;;;;;;;-0.14;90.64;99961.45;1686067;83;21517;-61
2022/01/10 07:17:05;;;;;;;29.42;20.50;;;;;;;-0.14;90.91;99965.38;1692247;83;21536;-60
2022/01/10 07:19:32;;;;;;;28.70;19.70;;;;;;;-0.12;91.08;99967.39;1691992;83;20994;-61
2022/01/10 07:21:58;;;;;;;29.55;19.48;;;;;;;-0.08;91.11;99959.12;1701559;83;21074;-63
2022/01/10 07:24:24;;;;;;;27.40;19.75;;;;;;;-0.05;90.95;99965.92;1701187;82;21613;-61
2022/01/10 07:26:51;;;;;;;29.27;22.70;;;;;;;-0.03;90.82;99962.69;1704579;83;22096;-58
2022/01/10 07:29:17;;;;;;;25.02;19.12;;;;;;;-0.02;90.70;99969.12;1695448;83;21027;-59
2022/01/10 07:31:43;;;;;;;30.85;21.87;;;;;;;-0.01;90.72;99966.01;1703307;83;21008;-59
2022/01/10 07:34:15;;;;;;;28.05;20.40;;;;;;;0.02;90.56;99967.53;1695165;82;21014;-59
2022/01/10 07:36:42;;;;;;;25.47;17.93;;;;;;;0.05;90.65;99968.59;1690580;83;21101;-61
2022/01/10 07:39:10;;;;;;;28.70;20.07;;;;;;;0.09;90.50;99968.68;1689612;83;21018;-61
2022/01/10 07:41:37;;;;;;;28.13;18.87;;;;;;;0.11;90.38;99972.81;1691958;83;21063;-60
2022/01/10 07:44:05;;;;;;;22.43;17.17;;;;;;;0.13;90.35;99974.86;1691347;83;21510;-61
2022/01/10 07:46:31;;;;;;;25.23;17.83;;;;;;;0.15;89.95;99976.87;1692368;83;21126;-63
2022/01/10 07:48:58;;;;;;;23.90;18.85;;;;;;;0.14;89.64;99979.61;1697772;83;21633;-61
2022/01/10 07:51:26;;;;;;;25.53;19.70;;;;;;;0.15;89.57;99978.17;1690330;83;21039;-64
2022/01/10 07:53:53;;;;;;;29.27;18.50;;;;;;;0.14;89.48;99981.74;1642694;86;21042;-60
2022/01/10 07:56:21;;;;;;;27.63;18.37;;;;;;;0.18;89.69;99986.25;1660414;85;21031;-61
2022/01/10 07:58:50;;;;;;;24.92;19.40;;;;;;;0.20;89.43;99992.19;1647268;87;21101;-60
2022/01/10 08:01:15;;;;;;;28.70;19.47;;;;;;;0.18;88.83;99992.80;1671008;85;21000;-58
2022/01/10 08:03:41;;;;;;;24.70;18.70;;;;;;;0.15;88.80;99999.14;1684818;84;21102;-63
2022/01/10 08:06:07;;;;;;;26.05;18.75;;;;;;;0.14;88.99;100004.52;1686604;84;21034;-61
2022/01/10 08:08:34;;;;;;;25.57;18.25;;;;;;;0.15;88.95;100010.94;1685177;84;21097;-60
2022/01/10 08:11:00;;;;;;;27.65;19.30;;;;;;;0.17;88.75;100010.78;1686499;84;21822;-61
2022/01/10 08:13:26;;;;;;;31.12;21.65;;;;;;;0.10;87.97;100018.34;1686723;84;21007;-61
2022/01/10 08:15:52;;;;;;;28.55;19.45;;;;;;;0.06;87.99;100022.65;1637926;86;21085;-60
2022/01/10 08:18:19;;;;;;;28.83;18.65;;;;;;;0.00;87.88;100018.78;1653049;85;21047;-60
2022/01/10 08:20:46;;;;;;;26.07;17.70;;;;;;;-0.04;87.91;100023.44;1681060;84;21047;-58
2022/01/10 08:23:14;;;;;;;24.70;18.42;;;;;;;-0.02;88.21;100030.70;1695903;83;21581;-61
2022/01/10 08:25:40;;;;;;;26.17;18.93;;;;;;;0.01;88.25;100037.45;1690791;83;21049;-59
2022/01/10 08:28:06;;;;;;;26.25;17.50;;;;;;;0.06;88.39;100035.75;1696044;84;21063;-59
2022/01/10 08:30:33;;;;;;;21.77;16.52;;;;;;;0.09;88.21;100033.70;1686466;83;21177;-60
2022/01/10 08:32:59;;;;;;;21.23;15.70;;;;;;;0.08;88.09;100038.61;1691644;83;21062;-59
2022/01/10 08:35:25;;;;;;;23.95;17.27;;;;;;;0.08;87.85;100043.86;1704309;82;21006;-59
2022/01/10 08:37:52;;;;;;;22.85;17.23;;;;;;;0.10;88.05;100043.25;1712680;83;21024;-59
2022/01/10 08:40:18;;;;;;;24.75;17.45;;;;;;;0.13;87.81;100043.00;1710810;82;21984;-59
2022/01/10 08:42:44;;;;;;;23.80;17.67;;;;;;;0.15;87.81;100047.63;1710522;82;21613;-59
2022/01/10 08:45:11;;;;;;;22.85;17.30;;;;;;;0.19;87.91;100048.21;1713686;82;21133;-57
2022/01/10 08:47:39;;;;;;;22.57;15.27;;;;;;;0.22;87.82;100047.94;1713113;82;21029;-58
2022/01/10 08:50:09;;;;;;;23.07;17.67;;;;;;;0.22;87.68;100052.35;1714569;82;21035;-58
2022/01/10 08:52:37;;;;;;;19.30;14.87;;;;;;;0.22;87.45;100053.17;1723592;82;21110;-58
2022/01/10 08:55:04;;;;;;;23.57;17.13;;;;;;;0.19;86.96;100059.52;1716333;82;21023;-59
2022/01/10 08:57:31;;;;;;;20.77;15.17;;;;;;;0.17;86.97;100054.88;1714005;82;21038;-62
2022/01/10 08:59:57;;;;;;;22.87;16.00;;;;;;;0.21;87.14;100057.23;1713291;82;21042;-59
2022/01/10 09:02:23;;;;;;;21.52;16.48;;;;;;;0.21;86.78;100051.53;1704274;82;21073;-59
2022/01/10 09:04:50;;;;;;;24.30;17.52;;;;;;;0.17;86.46;100060.13;1707560;83;21030;-60
2022/01/10 09:07:16;;;;;;;23.50;17.33;;;;;;;0.17;86.63;100060.13;1710591;82;21007;-59
2022/01/10 09:09:42;;;;;;;22.77;17.48;;;;;;;0.19;86.43;100060.83;1710962;82;21117;-58
2022/01/10 09:12:11;;;;;;;17.60;13.83;;;;;;;0.22;86.35;100061.53;1706036;81;21029;-59
2022/01/10 09:14:38;;;;;;;;;;;;;;;0.21;86.21;100071.19;1705309;82;21612;-59
2022/01/10 09:17:04;;;;;;;22.10;16.70;;;;;;;0.14;85.83;100064.80;1709758;82;20232;-60
2022/01/10 09:19:30;;;;;;;19.12;14.68;;;;;;;-0.26;85.47;100020.94;1710588;82;21632;-59
2022/01/10 09:21:56;;;;;;;22.98;16.95;;;;;;;-0.01;84.87;100062.96;1715961;82;21114;-60
2022/01/10 09:24:23;;;;;;;23.07;15.48;;;;;;;-0.15;84.76;100075.90;1714205;82;21509;-61
2022/01/10 09:26:50;;;;;;;18.87;14.07;;;;;;;-0.25;84.56;100070.55;1710513;82;21131;-59
2022/01/10 09:30:41;;;;;;;23.70;15.90;;;;;;;-0.36;84.92;100079.77;1789716;78;22950;-61
2022/01/10 09:33:08;;;;;;;21.43;16.30;;;;;;;-0.49;84.25;100085.19;1753440;80;21104;-60
2022/01/10 09:35:34;;;;;;;22.00;16.23;;;;;;;-0.54;84.40;100078.17;1707607;83;21024;-61
2022/01/10 09:38:01;;;;;;;19.35;14.30;;;;;;;-0.53;84.56;100086.84;1717961;83;21013;-60
2022/01/10 09:40:27;;;;;;;20.97;14.45;;;;;;;-0.53;84.76;100086.84;1701332;83;21126;-60
2022/01/10 09:42:53;;;;;;;19.82;13.53;;;;;;;-0.57;84.81;100086.25;1722389;83;21165;-58
2022/01/10 09:45:20;;;;;;;21.50;15.10;;;;;;;-0.63;84.34;100083.65;1692289;83;20988;-57
2022/01/10 09:47:46;;;;;;;22.90;15.85;;;;;;;-0.65;84.40;100088.66;1695353;83;21691;-60
2022/01/10 09:50:17;;;;;;;20.12;16.52;;;;;;;-0.65;84.02;100095.20;1703160;83;20997;-59
2022/01/10 09:52:48;;;;;;;20.53;14.40;;;;;;;-0.66;84.53;100102.69;1700603;83;21076;-58
2022/01/10 09:55:16;;;;;;;24.57;18.17;;;;;;;-0.67;84.62;100105.80;1697342;81;21024;-60
2022/01/10 09:57:43;;;;;;;21.37;17.83;;;;;;;-0.68;84.62;100110.69;1718444;82;21040;-58
2022/01/10 10:00:12;;;;;;;24.60;17.57;;;;;;;-0.69;84.86;100106.39;1726886;82;20989;-60
2022/01/10 10:02:42;;;;;;;24.43;17.57;;;;;;;-0.69;84.82;100111.63;1699379;83;21034;-60
2022/01/10 10:05:12;;;;;;;20.80;16.63;;;;;;;-0.68;84.94;100113.31;1702165;83;21016;-60
2022/01/10 10:07:40;;;;;;;20.73;16.27;;;;;;;-0.66;84.94;100115.78;1693789;83;20984;-59
2022/01/10 10:10:11;;;;;;;20.73;14.83;;;;;;;-0.66;85.02;100117.09;1699806;83;21054;-59
2022/01/10 10:12:41;;;;;;;23.83;16.87;;;;;;;-0.65;84.92;100116.97;1695663;83;21136;-59
2022/01/10 10:15:11;;;;;;;20.93;14.83;;;;;;;-0.64;84.72;100114.73;1666755;84;21033;-60
2022/01/10 10:17:39;;;;;;;23.00;18.17;;;;;;;-0.65;84.51;100124.83;1659335;84;21829;-59
2022/01/10 10:20:14;;;;;;;26.73;17.83;;;;;;;-0.65;84.30;100127.93;1673762;84;21251;-60
2022/01/10 10:22:49;;;;;;;21.60;16.13;;;;;;;-0.66;84.58;100127.11;1664113;84;20981;-59
2022/01/10 10:25:14;;;;;;;20.50;15.50;;;;;;;-0.65;84.72;100127.45;1688429;83;21046;-61
2022/01/10 10:27:44;;;;;;;22.33;16.07;;;;;;;-0.64;84.27;100136.98;1667950;85;21042;-59
2022/01/10 10:30:27;;;;;;;27.40;16.83;;;;;;;-0.64;84.24;100127.81;1693587;82;21612;-60
2022/01/10 10:33:20;;;;;;;19.87;14.87;;;;;;;-0.67;84.15;100137.20;1706891;82;21517;-60
2022/01/10 10:36:03;;;;;;;20.97;16.00;;;;;;;-0.70;84.28;100139.23;1693106;82;21573;-60
2022/01/10 10:38:28;;;;;;;22.70;16.33;;;;;;;-0.71;84.41;100138.41;1703686;82;21080;-60
2022/01/10 10:40:59;;;;;;;21.25;16.55;;;;;;;-0.71;84.62;100134.48;1694435;83;21169;-60
2022/01/10 10:43:25;;;;;;;18.17;14.23;;;;;;;-0.68;84.36;100143.41;1688935;82;20994;-60
2022/01/10 10:45:51;;;;;;;22.58;17.25;;;;;;;-0.67;84.01;100141.62;1687314;82;21108;-60
2022/01/10 10:48:17;;;;;;;23.95;16.40;;;;;;;-0.69;83.94;100148.28;1694069;82;21105;-61
2022/01/10 10:50:47;;;;;;;19.02;14.78;;;;;;;-0.67;83.99;100145.55;1693021;82;21064;-59
2022/01/10 10:53:15;;;;;;;20.67;15.20;;;;;;;-0.69;83.71;100150.89;1685855;82;21651;-61
2022/01/10 10:55:45;;;;;;;28.30;18.67;;;;;;;-0.71;83.71;100150.67;1690961;83;21120;-60
2022/01/10 10:58:13;;;;;;;19.90;15.23;;;;;;;-0.72;84.08;100153.74;1703397;83;20990;-60
2022/01/10 11:00:40;;;;;;;23.53;17.13;;;;;;;-0.70;84.00;100159.69;1705637;82;21553;-60
2022/01/10 11:03:09;;;;;;;19.15;15.90;;;;;;;-0.72;83.91;100157.66;1702189;83;21050;-59
2022/01/10 11:05:34;;;;;;;21.63;15.23;;;;;;;-0.79;83.13;100158.64;1695946;82;21448;-60
2022/01/10 11:08:00;;;;;;;20.00;15.15;;;;;;;-0.88;83.64;100167.20;1669738;84;21474;-60
2022/01/10 11:10:27;;;;;;;22.60;15.57;;;;;;;-0.91;83.84;100163.98;1676358;82;21076;-62
2022/01/10 11:12:58;;;;;;;24.00;17.45;;;;;;;-0.94;83.89;100170.75;1691800;81;21060;-60
2022/01/10 11:15:26;;;;;;;24.70;17.57;;;;;;;-0.97;83.20;100172.31;1680498;83;21057;-61
2022/01/10 11:18:03;;;;;;;24.27;18.57;;;;;;;-1.09;83.31;100165.77;1689903;83;20998;-61
2022/01/10 11:20:41;;;;;;;24.13;16.53;;;;;;;-1.21;83.89;100170.13;1705578;83;21021;-60
2022/01/10 11:23:08;;;;;;;24.57;19.00;;;;;;;-1.29;83.93;100173.81;1704967;82;21138;-60
2022/01/10 11:25:39;;;;;;;27.30;16.87;;;;;;;-1.34;84.11;100177.23;1704286;82;21625;-64
2022/01/10 11:28:23;;;;;;;25.90;18.63;;;;;;;-1.38;83.97;100186.27;1673837;84;21050;-60
2022/01/10 11:31:02;;;;;;;25.33;18.43;;;;;;;-1.44;84.01;100192.79;1680094;83;21712;-61